createdAt,value
2019-02-19T00:02:18.387Z,5.80
2019-02-19T00:04:46.850Z,5.80
2019-02-19T00:07:15.325Z,5.80
2019-02-19T00:09:43.852Z,5.70
2019-02-19T00:12:12.331Z,5.90
2019-02-19T00:14:40.791Z,5.90
2019-02-19T00:17:09.276Z,5.90
2019-02-19T00:19:37.810Z,5.90
2019-02-19T00:22:06.551Z,5.90
2019-02-19T00:24:35.025Z,5.80
2019-02-19T00:27:03.550Z,5.80
2019-02-19T00:29:32.026Z,5.70
2019-02-19T00:32:00.483Z,5.60
2019-02-19T00:34:28.964Z,5.60
2019-02-19T00:36:57.500Z,5.60
2019-02-19T00:39:26.053Z,5.60
2019-02-19T00:41:54.510Z,5.50
2019-02-19T00:44:22.987Z,5.50
2019-02-19T00:46:51.442Z,5.40
2019-02-19T00:49:22.786Z,5.50
2019-02-19T00:51:51.246Z,5.50
2019-02-19T00:54:19.731Z,5.40
2019-02-19T00:56:48.195Z,5.40
2019-02-19T00:59:16.666Z,5.40
2019-02-19T01:01:45.126Z,5.30
2019-02-19T01:04:13.619Z,5.30
2019-02-19T01:07:01.431Z,5.30
2019-02-19T01:09:30.043Z,5.30
2019-02-19T01:11:58.858Z,5.20
2019-02-19T01:14:27.340Z,5.20
2019-02-19T01:16:55.807Z,5.20
2019-02-19T01:19:24.323Z,5.30
2019-02-19T01:21:52.779Z,5.30
2019-02-19T01:24:21.232Z,5.30
2019-02-19T01:26:49.670Z,5.30
2019-02-19T01:29:18.119Z,5.20
2019-02-19T01:31:46.562Z,5.20
2019-02-19T01:34:15.015Z,5.20
2019-02-19T01:36:43.454Z,5.20
2019-02-19T01:39:11.910Z,5.20
2019-02-19T01:41:40.922Z,5.20
2019-02-19T01:44:09.375Z,5.20
2019-02-19T01:46:37.816Z,5.30
2019-02-19T01:49:06.267Z,5.30
2019-02-19T01:51:34.707Z,5.30
2019-02-19T01:54:03.158Z,5.30
2019-02-19T01:56:31.600Z,5.40
2019-02-19T01:59:00.060Z,5.20
2019-02-19T02:01:29.047Z,5.10
2019-02-19T02:03:57.507Z,4.90
2019-02-19T02:06:25.944Z,4.90
2019-02-19T02:08:54.391Z,4.90
2019-02-19T02:11:22.840Z,5.00
2019-02-19T02:13:51.308Z,5.10
2019-02-19T02:16:19.747Z,5.20
2019-02-19T02:18:48.199Z,5.20
2019-02-19T02:21:16.647Z,5.30
2019-02-19T02:23:45.115Z,5.40
2019-02-19T02:26:13.631Z,5.50
2019-02-19T02:28:42.091Z,5.50
2019-02-19T02:31:10.539Z,5.50
2019-02-19T02:33:38.996Z,5.50
2019-02-19T02:36:07.508Z,5.60
2019-02-19T02:38:35.946Z,5.60
2019-02-19T02:41:04.408Z,5.70
2019-02-19T02:43:32.893Z,5.70
2019-02-19T02:46:01.357Z,5.70
2019-02-19T02:48:29.792Z,5.70
2019-02-19T02:50:59.059Z,5.60
2019-02-19T02:53:27.503Z,5.60
2019-02-19T02:55:55.960Z,5.60
2019-02-19T02:58:24.405Z,5.60
2019-02-19T03:00:52.855Z,5.50
2019-02-19T03:03:21.299Z,5.30
2019-02-19T03:06:01.684Z,5.10
2019-02-19T03:08:30.128Z,4.90
2019-02-19T03:10:59.150Z,4.80
2019-02-19T03:13:27.586Z,4.60
2019-02-19T03:16:02.183Z,4.40
2019-02-19T03:18:26.204Z,4.20
2019-02-19T03:20:54.654Z,4.00
2019-02-19T03:23:23.092Z,4.00
2019-02-19T03:25:51.545Z,4.00
2019-02-19T03:28:19.983Z,4.00
2019-02-19T03:30:48.440Z,4.00
2019-02-19T03:33:16.889Z,3.90
2019-02-19T03:35:45.334Z,3.80
2019-02-19T03:38:13.791Z,3.90
2019-02-19T03:40:42.238Z,4.10
2019-02-19T03:43:10.679Z,4.50
2019-02-19T03:45:39.133Z,4.70
2019-02-19T03:48:07.588Z,5.00
2019-02-19T03:50:36.107Z,5.10
2019-02-19T03:53:04.553Z,5.00
2019-02-19T03:55:32.999Z,5.00
2019-02-19T03:58:01.447Z,5.10
2019-02-19T04:00:29.907Z,5.10
2019-02-19T04:02:59.264Z,5.10
2019-02-19T04:05:27.726Z,5.20
2019-02-19T04:07:56.166Z,5.30
2019-02-19T04:10:24.618Z,5.40
2019-02-19T04:12:53.062Z,5.40
2019-02-19T04:15:21.521Z,5.40
2019-02-19T04:17:49.964Z,5.40
2019-02-19T04:20:18.416Z,5.50
2019-02-19T04:22:46.864Z,5.40
2019-02-19T04:25:15.319Z,5.50
2019-02-19T04:27:43.754Z,5.40
2019-02-19T04:30:12.207Z,5.50
2019-02-19T04:32:40.651Z,5.40
2019-02-19T04:35:09.137Z,5.40
2019-02-19T04:37:38.624Z,5.50
2019-02-19T04:40:08.385Z,5.50
2019-02-19T04:42:36.828Z,5.50
2019-02-19T04:45:05.816Z,5.60
2019-02-19T04:47:34.262Z,5.50
2019-02-19T04:50:02.707Z,5.50
2019-02-19T04:52:31.160Z,5.50
2019-02-19T04:54:59.603Z,5.50
2019-02-19T04:57:28.056Z,5.60
2019-02-19T04:59:56.491Z,5.60
2019-02-19T05:02:24.951Z,5.60
2019-02-19T05:04:53.392Z,5.60
2019-02-19T05:07:21.843Z,5.50
2019-02-19T05:09:53.254Z,5.50
2019-02-19T05:12:21.711Z,5.50
2019-02-19T05:14:50.159Z,5.50
2019-02-19T05:17:19.804Z,5.50
2019-02-19T05:19:48.277Z,5.50
2019-02-19T05:22:16.789Z,5.50
2019-02-19T05:24:45.222Z,5.50
2019-02-19T05:27:13.684Z,5.50
2019-02-19T05:29:42.123Z,5.40
2019-02-19T05:32:10.886Z,5.30
2019-02-19T05:34:39.332Z,5.30
2019-02-19T05:37:07.788Z,5.30
2019-02-19T05:39:36.233Z,5.30
2019-02-19T05:42:04.699Z,5.30
2019-02-19T05:44:33.217Z,5.30
2019-02-19T05:47:01.684Z,5.30
2019-02-19T05:49:30.195Z,5.30
2019-02-19T05:51:59.571Z,5.30
2019-02-19T05:54:28.021Z,5.30
2019-02-19T05:56:56.474Z,5.40
2019-02-19T05:59:24.997Z,5.30
2019-02-19T06:01:53.525Z,5.40
2019-02-19T06:04:21.965Z,5.40
2019-02-19T06:06:50.420Z,5.40
2019-02-19T06:09:18.863Z,5.40
2019-02-19T06:11:47.332Z,5.40
2019-02-19T06:14:15.786Z,5.40
2019-02-19T06:16:44.243Z,5.40
2019-02-19T06:19:12.686Z,5.50
2019-02-19T06:21:41.150Z,5.50
2019-02-19T06:24:09.592Z,5.60
2019-02-19T06:26:38.059Z,5.50
2019-02-19T06:29:06.506Z,5.50
2019-02-19T06:31:34.959Z,5.50
2019-02-19T06:34:03.403Z,5.60
2019-02-19T06:36:31.859Z,5.70
2019-02-19T06:39:00.306Z,5.80
2019-02-19T06:41:29.671Z,5.90
2019-02-19T06:43:58.123Z,6.10
2019-02-19T06:46:26.565Z,6.20
2019-02-19T06:48:55.019Z,6.40
2019-02-19T06:51:23.464Z,6.50
2019-02-19T06:53:51.923Z,6.70
2019-02-19T06:56:20.366Z,6.90
2019-02-19T06:58:48.819Z,6.90
2019-02-19T07:01:56.230Z,7.10
2019-02-19T07:04:26.307Z,7.50
2019-02-19T07:06:54.755Z,8.10
2019-02-19T07:09:23.222Z,8.90
2019-02-19T07:11:51.727Z,9.30
2019-02-19T07:14:20.178Z,9.80
2019-02-19T07:16:48.618Z,9.30
2019-02-19T07:19:17.076Z,9.20
2019-02-19T07:21:45.521Z,9.30
2019-02-19T07:24:13.968Z,9.40
2019-02-19T07:26:42.410Z,9.60
2019-02-19T07:29:10.865Z,9.40
2019-02-19T07:31:39.310Z,9.10
2019-02-19T07:34:07.824Z,9.10
2019-02-19T07:36:36.274Z,8.90
2019-02-19T07:39:05.763Z,8.90
2019-02-19T07:41:34.216Z,8.90
2019-02-19T07:44:02.739Z,8.90
2019-02-19T07:46:31.228Z,8.80
2019-02-19T07:48:59.830Z,8.60
2019-02-19T07:51:28.294Z,8.60
2019-02-19T07:53:56.748Z,8.60
2019-02-19T07:56:25.194Z,9.00
2019-02-19T07:58:53.756Z,9.20
2019-02-19T08:01:22.199Z,9.10
2019-02-19T08:03:50.659Z,9.00
2019-02-19T08:06:19.104Z,9.20
2019-02-19T08:08:47.560Z,9.10
2019-02-19T08:11:16.005Z,9.00
2019-02-19T08:13:44.467Z,9.30
2019-02-19T08:16:12.899Z,9.10
2019-02-19T08:18:41.355Z,9.10
2019-02-19T08:21:09.811Z,9.30
2019-02-19T08:23:38.257Z,9.50
2019-02-19T08:26:06.695Z,9.70
2019-02-19T08:28:35.159Z,10.00
2019-02-19T08:31:03.679Z,10.10
2019-02-19T08:33:33.815Z,10.70
2019-02-19T08:36:02.363Z,11.20
2019-02-19T08:38:30.826Z,11.80
2019-02-19T08:40:59.964Z,11.70
2019-02-19T08:43:28.420Z,12.20
2019-02-19T08:45:56.864Z,12.70
2019-02-19T08:48:25.319Z,12.30
2019-02-19T08:50:53.763Z,12.10
2019-02-19T08:53:22.198Z,11.80
2019-02-19T08:55:50.663Z,11.90
2019-02-19T08:58:19.107Z,12.00
2019-02-19T09:00:47.616Z,12.30
2019-02-19T09:03:16.969Z,12.30
2019-02-19T09:05:45.598Z,12.40
2019-02-19T09:08:14.047Z,12.20
2019-02-19T09:10:42.525Z,12.20
2019-02-19T09:13:10.963Z,12.10
2019-02-19T09:15:39.419Z,11.70
2019-02-19T09:18:07.867Z,12.00
2019-02-19T09:20:36.883Z,12.20
2019-02-19T09:23:05.456Z,12.30
2019-02-19T09:25:33.928Z,11.60
2019-02-19T09:28:02.374Z,11.60
2019-02-19T09:30:30.833Z,11.80
2019-02-19T09:33:00.001Z,11.30
2019-02-19T09:35:28.455Z,11.50
2019-02-19T09:37:56.903Z,11.60
2019-02-19T09:40:25.368Z,12.00
2019-02-19T09:42:53.808Z,12.20
2019-02-19T09:45:22.258Z,12.40
2019-02-19T09:47:50.707Z,12.50
2019-02-19T09:50:19.159Z,12.40
2019-02-19T09:52:47.626Z,12.60
2019-02-19T09:55:16.148Z,12.60
2019-02-19T09:57:44.596Z,12.20
2019-02-19T10:00:14.288Z,12.60
2019-02-19T10:02:43.946Z,12.40
2019-02-19T10:05:12.563Z,12.10
2019-02-19T10:07:41.009Z,12.20
2019-02-19T10:10:15.435Z,12.60
2019-02-19T10:12:43.874Z,13.00
2019-02-19T10:15:13.272Z,13.10
2019-02-19T10:17:41.718Z,12.70
2019-02-19T10:20:11.045Z,12.60
2019-02-19T10:22:39.484Z,12.50
2019-02-19T10:25:11.047Z,12.70
2019-02-19T10:27:39.493Z,12.90
2019-02-19T10:30:11.025Z,12.90
2019-02-19T10:32:39.471Z,13.00
2019-02-19T10:35:09.771Z,13.10
2019-02-19T10:37:38.211Z,12.90
2019-02-19T10:40:09.796Z,12.80
2019-02-19T10:42:38.365Z,13.30
2019-02-19T10:45:12.271Z,13.20
2019-02-19T10:47:40.714Z,13.70
2019-02-19T10:50:10.907Z,13.30
2019-02-19T10:52:39.364Z,13.30
2019-02-19T10:55:10.023Z,13.10
2019-02-19T10:57:38.474Z,13.10
2019-02-19T11:00:17.156Z,12.70
2019-02-19T11:02:45.607Z,12.60
2019-02-19T11:05:14.164Z,12.20
2019-02-19T11:07:42.610Z,12.10
2019-02-19T11:10:13.477Z,12.10
2019-02-19T11:12:42.146Z,12.00
2019-02-19T11:15:12.139Z,11.80
2019-02-19T11:17:40.591Z,11.60
2019-02-19T11:20:12.050Z,11.50
2019-02-19T11:22:40.511Z,11.50
2019-02-19T11:25:11.306Z,11.30
2019-02-19T11:27:39.756Z,11.10
2019-02-19T11:30:11.319Z,11.00
2019-02-19T11:32:39.762Z,10.90
2019-02-19T11:35:09.468Z,10.90
2019-02-19T11:37:37.929Z,10.80
2019-02-19T11:40:13.367Z,10.80
2019-02-19T11:42:41.815Z,10.80
2019-02-19T11:45:15.207Z,10.90
2019-02-19T11:47:43.663Z,10.80
2019-02-19T11:50:13.480Z,10.80
2019-02-19T11:52:41.987Z,10.90
2019-02-19T11:55:15.387Z,10.90
2019-02-19T11:57:43.835Z,11.00
2019-02-19T12:00:15.981Z,10.90
2019-02-19T12:02:44.426Z,10.80
2019-02-19T12:05:12.887Z,10.70
2019-02-19T12:07:41.337Z,10.60
2019-02-19T12:10:11.918Z,10.50
2019-02-19T12:12:40.315Z,10.50
2019-02-19T12:15:10.807Z,10.40
2019-02-19T12:17:39.324Z,10.40
2019-02-19T12:20:10.491Z,10.40
2019-02-19T12:22:38.940Z,10.30
2019-02-19T12:25:08.933Z,10.30
2019-02-19T12:27:37.390Z,10.20
2019-02-19T12:30:14.051Z,10.20
2019-02-19T12:32:42.499Z,10.20
2019-02-19T12:35:10.950Z,10.20
2019-02-19T12:37:39.394Z,10.10
2019-02-19T12:40:10.492Z,10.20
2019-02-19T12:42:38.944Z,10.20
2019-02-19T12:45:11.955Z,10.30
2019-02-19T12:47:40.401Z,10.30
2019-02-19T12:50:11.761Z,10.40
2019-02-19T12:52:40.221Z,10.40
2019-02-19T12:55:09.718Z,10.50
2019-02-19T12:57:38.160Z,10.50
2019-02-19T13:00:09.690Z,10.40
2019-02-19T13:02:38.139Z,10.30
2019-02-19T13:05:08.833Z,10.20
2019-02-19T13:07:37.279Z,10.20
2019-02-19T13:10:08.683Z,10.20
2019-02-19T13:12:37.127Z,10.20
2019-02-19T13:15:08.989Z,10.10
2019-02-19T13:17:37.440Z,10.10
2019-02-19T13:20:09.117Z,10.10
2019-02-19T13:22:37.622Z,10.10
2019-02-19T13:25:08.007Z,10.10
2019-02-19T13:27:36.462Z,10.20
2019-02-19T13:30:07.758Z,10.20
2019-02-19T13:32:36.200Z,10.10
2019-02-19T13:35:06.887Z,10.10
2019-02-19T13:37:35.353Z,10.10
2019-02-19T13:40:05.400Z,10.10
2019-02-19T13:42:33.851Z,10.10
2019-02-19T13:45:02.303Z,10.20
2019-02-19T13:47:30.769Z,10.10
2019-02-19T13:49:59.270Z,10.20
2019-02-19T13:52:29.368Z,10.20
2019-02-19T13:54:58.080Z,10.30
2019-02-19T13:57:26.538Z,10.20
2019-02-19T13:59:54.983Z,10.10
2019-02-19T14:02:23.439Z,10.10
2019-02-19T14:04:51.879Z,10.00
2019-02-19T14:07:20.331Z,10.20
2019-02-19T14:09:48.780Z,10.20
2019-02-19T14:12:17.236Z,10.20
2019-02-19T14:14:47.315Z,10.20
2019-02-19T14:17:15.846Z,10.30
2019-02-19T14:19:45.933Z,10.10
2019-02-19T14:22:32.471Z,10.10
2019-02-19T14:25:05.536Z,10.10
2019-02-19T14:27:35.631Z,10.30
2019-02-19T14:30:07.873Z,10.50
2019-02-19T14:32:54.002Z,10.60
2019-02-19T14:35:29.983Z,10.60
2019-02-19T14:38:00.162Z,10.50
2019-02-19T14:40:30.303Z,10.40
2019-02-19T14:43:09.236Z,10.40
2019-02-19T14:45:39.316Z,10.40
2019-02-19T14:48:25.924Z,10.40
2019-02-19T14:51:11.013Z,10.40
2019-02-19T14:53:43.825Z,10.30
2019-02-19T14:56:30.611Z,10.20
2019-02-19T14:59:12.842Z,10.20
2019-02-19T15:02:01.212Z,10.20
2019-02-19T15:04:37.962Z,10.20
2019-02-19T15:07:08.057Z,10.20
2019-02-19T15:09:41.124Z,10.20
2019-02-19T15:12:14.000Z,10.10
2019-02-19T15:14:44.084Z,10.10
2019-02-19T15:17:32.302Z,10.00
2019-02-19T15:20:17.378Z,10.30
2019-02-19T15:22:50.127Z,11.00
2019-02-19T15:25:26.183Z,11.00
2019-02-19T15:27:56.277Z,10.70
2019-02-19T15:30:26.357Z,10.50
2019-02-19T15:33:12.831Z,10.20
2019-02-19T15:35:54.967Z,10.00
2019-02-19T15:38:27.791Z,9.80
2019-02-19T15:41:10.011Z,9.60
2019-02-19T15:43:48.941Z,9.50
2019-02-19T15:46:25.028Z,9.50
2019-02-19T15:49:01.035Z,9.40
2019-02-19T15:51:33.808Z,9.30
2019-02-19T15:54:03.982Z,9.30
2019-02-19T15:56:50.051Z,9.30
2019-02-19T15:59:26.092Z,9.20
2019-02-19T16:01:56.177Z,9.20
2019-02-19T16:04:26.270Z,9.10
2019-02-19T16:07:02.097Z,9.10
2019-02-19T16:09:32.543Z,9.00
2019-02-19T16:12:02.620Z,9.00
2019-02-19T16:14:44.701Z,9.00
2019-02-19T16:17:17.927Z,9.00
2019-02-19T16:19:57.431Z,9.00
2019-02-19T16:22:30.476Z,9.00
2019-02-19T16:27:55.479Z,8.80
2019-02-19T16:30:28.483Z,8.80
2019-02-19T16:32:58.558Z,8.80
2019-02-19T16:35:34.658Z,8.80
2019-02-19T16:38:10.483Z,8.70
2019-02-19T16:40:40.571Z,8.70
2019-02-19T16:43:26.889Z,8.60
2019-02-19T16:45:56.982Z,8.50
2019-02-19T16:48:43.119Z,8.50
2019-02-19T16:51:19.451Z,8.40
2019-02-19T16:53:49.527Z,8.30
2019-02-19T16:56:35.727Z,8.30
2019-02-19T16:59:14.892Z,8.30
2019-02-19T17:01:47.728Z,8.20
2019-02-19T17:04:20.702Z,8.20
2019-02-19T17:06:59.523Z,8.20
2019-02-19T17:09:29.640Z,8.20
2019-02-19T17:12:15.799Z,8.20
2019-02-19T17:14:45.900Z,8.20
2019-02-19T17:17:18.887Z,8.20
2019-02-19T17:19:51.883Z,8.10
2019-02-19T17:22:21.972Z,8.10
2019-02-19T17:24:54.707Z,8.10
2019-02-19T17:27:39.964Z,8.10
2019-02-19T17:30:11.980Z,8.10
2019-02-19T17:32:56.911Z,8.10
2019-02-19T17:35:29.772Z,8.10
2019-02-19T17:38:17.735Z,8.10
2019-02-19T17:40:59.883Z,8.10
2019-02-19T17:43:35.915Z,8.10
2019-02-19T17:46:14.711Z,8.00
2019-02-19T17:48:47.249Z,8.00
2019-02-19T17:51:35.247Z,8.00
2019-02-19T17:54:05.338Z,7.90
2019-02-19T17:56:38.103Z,7.90
2019-02-19T17:59:23.255Z,8.10
2019-02-19T18:02:05.222Z,8.20
2019-02-19T18:04:41.022Z,8.10
2019-02-19T18:07:14.039Z,8.00
2019-02-19T18:09:50.194Z,7.90
2019-02-19T18:12:20.287Z,8.00
2019-02-19T18:14:53.321Z,8.10
2019-02-19T18:17:35.201Z,8.10
2019-02-19T18:20:04.387Z,8.10
2019-02-19T18:22:32.832Z,8.00
2019-02-19T18:25:01.278Z,8.00
2019-02-19T18:27:29.732Z,8.00
2019-02-19T18:29:58.192Z,8.00
2019-02-19T18:32:26.709Z,8.00
2019-02-19T18:34:59.199Z,8.00
2019-02-19T18:37:27.645Z,8.00
2019-02-19T18:39:56.088Z,8.00
2019-02-19T18:42:24.547Z,8.00
2019-02-19T18:44:53.001Z,8.00
2019-02-19T18:47:21.447Z,8.00
2019-02-19T18:49:49.888Z,8.00
2019-02-19T18:52:18.356Z,8.10
2019-02-19T18:54:46.874Z,8.00
2019-02-19T18:57:15.393Z,8.00
2019-02-19T18:59:43.835Z,8.10
2019-02-19T19:02:12.287Z,8.10
2019-02-19T19:04:40.736Z,8.10
2019-02-19T19:07:09.186Z,8.10
2019-02-19T19:09:37.631Z,8.10
2019-02-19T19:12:06.087Z,8.10
2019-02-19T19:14:34.530Z,8.10
2019-02-19T19:17:03.037Z,8.10
2019-02-19T19:19:31.471Z,8.10
2019-02-19T19:21:59.930Z,8.10
2019-02-19T19:24:28.380Z,8.10
2019-02-19T19:26:56.828Z,8.10
2019-02-19T19:29:27.215Z,8.00
2019-02-19T19:31:55.668Z,8.00
2019-02-19T19:34:24.116Z,8.00
2019-02-19T19:36:52.559Z,7.90
2019-02-19T19:39:21.004Z,7.90
2019-02-19T19:41:49.444Z,7.80
2019-02-19T19:44:17.908Z,7.80
2019-02-19T19:46:46.419Z,7.80
2019-02-19T19:49:14.901Z,7.80
2019-02-19T19:51:43.344Z,7.80
2019-02-19T19:54:11.791Z,7.80
2019-02-19T19:56:40.227Z,7.80
2019-02-19T19:59:08.760Z,7.80
2019-02-19T20:01:37.209Z,7.80
2019-02-19T20:04:05.729Z,7.80
2019-02-19T20:06:34.175Z,7.80
2019-02-19T20:09:02.630Z,7.80
2019-02-19T20:11:31.496Z,7.80
2019-02-19T20:13:59.942Z,7.80
2019-02-19T20:16:28.384Z,7.80
2019-02-19T20:18:56.837Z,7.80
2019-02-19T20:21:27.102Z,7.80
2019-02-19T20:23:55.447Z,7.80
2019-02-19T20:26:23.986Z,7.80
2019-02-19T20:28:52.440Z,7.80
2019-02-19T20:31:20.878Z,7.80
2019-02-19T20:33:49.338Z,7.90
2019-02-19T20:36:17.781Z,7.90
2019-02-19T20:38:46.253Z,7.90
2019-02-19T20:41:14.686Z,7.90
2019-02-19T20:43:43.192Z,7.90
2019-02-19T20:46:12.128Z,7.80
2019-02-19T20:48:40.651Z,7.80
2019-02-19T20:51:09.093Z,7.90
2019-02-19T20:53:37.548Z,7.90
2019-02-19T20:56:06.004Z,7.90
2019-02-19T20:58:34.468Z,8.00
2019-02-19T21:01:02.977Z,8.00
2019-02-19T21:03:31.645Z,8.00
2019-02-19T21:06:00.092Z,8.10
2019-02-19T21:08:28.542Z,8.10
2019-02-19T21:10:56.987Z,8.10
2019-02-19T21:13:25.443Z,8.10
2019-02-19T21:15:53.893Z,8.10
2019-02-19T21:18:22.351Z,8.10
2019-02-19T21:20:50.787Z,8.10
2019-02-19T21:23:19.244Z,8.00
2019-02-19T21:25:47.761Z,8.00
2019-02-19T21:28:16.284Z,8.00
2019-02-19T21:30:45.417Z,7.90
2019-02-19T21:33:13.997Z,7.80
2019-02-19T21:35:42.463Z,7.70
2019-02-19T21:38:11.022Z,7.70
2019-02-19T21:40:39.493Z,7.60
2019-02-19T21:43:08.076Z,7.60
2019-02-19T21:45:36.522Z,7.60
2019-02-19T21:48:05.854Z,7.60
2019-02-19T21:50:34.302Z,7.60
2019-02-19T21:53:02.763Z,7.50
2019-02-19T21:55:31.659Z,7.60
2019-02-19T21:58:00.109Z,7.60
2019-02-19T22:00:28.554Z,7.60
2019-02-19T22:02:57.004Z,7.60
2019-02-19T22:05:25.455Z,7.60
2019-02-19T22:07:53.902Z,7.60
2019-02-19T22:10:22.363Z,7.50
2019-02-19T22:12:50.807Z,7.50
2019-02-19T22:15:20.817Z,7.50
2019-02-19T22:17:49.283Z,7.40
2019-02-19T22:20:27.260Z,7.30
2019-02-19T22:22:55.694Z,7.20
2019-02-19T22:25:24.151Z,7.20
2019-02-19T22:27:52.590Z,7.20
2019-02-19T22:30:21.045Z,7.20
2019-02-19T22:32:49.483Z,7.10
2019-02-19T22:35:17.931Z,7.10
2019-02-19T22:37:46.396Z,7.10
2019-02-19T22:40:14.939Z,7.20
2019-02-19T22:42:43.395Z,7.10
2019-02-19T22:45:11.957Z,7.10
2019-02-19T22:47:40.410Z,7.10
2019-02-19T22:50:09.728Z,7.10
2019-02-19T22:52:38.241Z,7.10
2019-02-19T22:55:18.287Z,7.10
2019-02-19T22:57:46.735Z,7.10
2019-02-19T23:00:28.922Z,7.10
2019-02-19T23:02:57.575Z,7.10
2019-02-19T23:05:26.071Z,7.20
2019-02-19T23:07:54.511Z,7.20
2019-02-19T23:10:24.525Z,7.20
2019-02-19T23:12:53.055Z,7.20
2019-02-19T23:15:21.517Z,7.10
2019-02-19T23:17:49.950Z,7.10
2019-02-19T23:20:18.404Z,7.00
2019-02-19T23:22:46.860Z,6.90
2019-02-19T23:25:15.320Z,6.80
2019-02-19T23:27:43.762Z,6.80
2019-02-19T23:30:12.210Z,6.80
2019-02-19T23:32:40.710Z,6.80
2019-02-19T23:35:26.759Z,6.80
2019-02-19T23:37:55.202Z,6.70
2019-02-19T23:40:23.656Z,6.70
2019-02-19T23:42:52.263Z,6.60
2019-02-19T23:45:20.718Z,6.50
2019-02-19T23:47:49.164Z,6.50
2019-02-19T23:50:17.612Z,6.50
2019-02-19T23:52:46.055Z,6.50
2019-02-19T23:55:14.511Z,6.50
2019-02-19T23:57:42.958Z,6.50
